createdAt,value
2023-04-08T00:00:06.866Z,0
2023-04-08T00:04:02.472Z,0
2023-04-08T00:08:01.274Z,0
2023-04-08T00:12:01.426Z,0
2023-04-08T00:16:01.446Z,0
2023-04-08T00:20:01.532Z,0
2023-04-08T00:24:01.719Z,0
2023-04-08T00:28:01.985Z,0
2023-04-08T00:32:02.097Z,0
2023-04-08T00:36:02.199Z,0
2023-04-08T00:40:01.391Z,0
2023-04-08T00:44:01.374Z,0
2023-04-08T00:48:01.681Z,0
2023-04-08T00:52:01.846Z,0
2023-04-08T00:56:01.953Z,0
2023-04-08T01:00:04.799Z,0
2023-04-08T01:04:02.125Z,0
2023-04-08T01:08:02.087Z,0
2023-04-08T01:12:01.242Z,0
2023-04-08T01:16:01.545Z,0
2023-04-08T01:20:01.809Z,0
2023-04-08T01:24:02.016Z,0
2023-04-08T01:28:02.050Z,0
2023-04-08T01:32:02.104Z,0
2023-04-08T01:36:02.134Z,0
2023-04-08T01:40:01.366Z,0
2023-04-08T01:44:01.557Z,0
2023-04-08T01:48:01.792Z,0
2023-04-08T01:52:01.785Z,0
2023-04-08T01:56:01.872Z,0
2023-04-08T02:00:06.336Z,0
2023-04-08T02:04:01.561Z,0
2023-04-08T02:08:01.502Z,0
2023-04-08T02:12:01.665Z,0
2023-04-08T02:16:01.831Z,0
2023-04-08T02:20:01.956Z,0
2023-04-08T02:24:03.870Z,0
2023-04-08T02:28:02.180Z,0
2023-04-08T02:32:02.248Z,0
2023-04-08T02:36:01.395Z,0
2023-04-08T02:40:01.618Z,0
2023-04-08T02:44:01.818Z,0
2023-04-08T02:48:02.109Z,0
2023-04-08T02:52:02.154Z,0
2023-04-08T02:56:02.240Z,0
2023-04-08T03:00:05.829Z,0
2023-04-08T03:04:02.055Z,0
2023-04-08T03:08:02.071Z,0
2023-04-08T03:12:02.149Z,0
2023-04-08T03:16:02.246Z,0
2023-04-08T03:20:01.362Z,0
2023-04-08T03:24:01.474Z,0
2023-04-08T03:28:01.789Z,0
2023-04-08T03:32:02.104Z,0
2023-04-08T03:36:01.575Z,0
2023-04-08T03:40:01.641Z,0
2023-04-08T03:44:01.790Z,0
2023-04-08T03:48:02.159Z,0
2023-04-08T03:52:02.166Z,0
2023-04-08T03:56:02.252Z,0
2023-04-08T04:00:04.819Z,0
2023-04-08T04:04:02.161Z,0
2023-04-08T04:08:02.185Z,0
2023-04-08T04:12:01.300Z,0
2023-04-08T04:16:01.647Z,0
2023-04-08T04:20:01.610Z,0
2023-04-08T04:24:02.026Z,0
2023-04-08T04:28:01.352Z,0
2023-04-08T04:32:01.707Z,0
2023-04-08T04:36:01.973Z,0
2023-04-08T04:40:02.028Z,0
2023-04-08T04:44:02.212Z,0
2023-04-08T04:48:01.326Z,0
2023-04-08T04:52:01.472Z,0
2023-04-08T04:56:01.806Z,0
2023-04-08T05:00:05.668Z,0
2023-04-08T05:04:01.516Z,0
2023-04-08T05:08:01.558Z,0
2023-04-08T05:12:01.730Z,0
2023-04-08T05:16:02.000Z,0
2023-04-08T05:20:02.291Z,0
2023-04-08T05:24:01.484Z,0
2023-04-08T05:28:01.563Z,0
2023-04-08T05:32:01.801Z,0
2023-04-08T05:36:02.085Z,0
2023-04-08T05:40:02.239Z,0
2023-04-08T05:44:01.242Z,0
2023-04-08T05:48:01.368Z,0
2023-04-08T05:52:01.469Z,0
2023-04-08T05:56:01.627Z,0
2023-04-08T06:00:08.098Z,0
2023-04-08T06:04:02.333Z,0
2023-04-08T06:08:01.398Z,0
2023-04-08T06:12:01.326Z,0
2023-04-08T06:16:01.750Z,0
2023-04-08T06:20:01.673Z,0
2023-04-08T06:24:01.884Z,0
2023-04-08T06:28:02.063Z,0
2023-04-08T06:32:02.225Z,0
2023-04-08T06:36:01.507Z,0
2023-04-08T06:40:01.563Z,0
2023-04-08T06:44:01.561Z,0
2023-04-08T06:48:01.611Z,1
2023-04-08T06:52:01.733Z,1
2023-04-08T06:56:01.833Z,3
2023-04-08T07:00:07.914Z,1
2023-04-08T07:04:02.043Z,3
2023-04-08T07:08:02.206Z,3
2023-04-08T07:12:01.253Z,3
2023-04-08T07:16:01.500Z,3
2023-04-08T07:20:01.540Z,3
2023-04-08T07:24:01.868Z,3
2023-04-08T07:28:02.060Z,3
2023-04-08T07:32:02.053Z,3
2023-04-08T07:36:02.113Z,3
2023-04-08T07:40:02.223Z,3
2023-04-08T07:44:01.398Z,3
2023-04-08T07:48:01.542Z,3
2023-04-08T07:52:01.593Z,3
2023-04-08T07:56:01.904Z,3
2023-04-08T08:00:04.697Z,3
2023-04-08T08:04:01.846Z,3
2023-04-08T08:08:01.935Z,3
2023-04-08T08:12:01.904Z,3
2023-04-08T08:16:02.231Z,3
2023-04-08T08:20:02.195Z,3
2023-04-08T08:24:02.259Z,3
2023-04-08T08:28:02.162Z,4
2023-04-08T08:32:02.088Z,3
2023-04-08T08:36:02.003Z,3
2023-04-08T08:40:01.458Z,3
2023-04-08T08:44:01.576Z,0
2023-04-08T08:48:01.840Z,0
2023-04-08T08:52:02.133Z,3
2023-04-08T08:56:17.158Z,1
2023-04-08T09:00:07.502Z,1
2023-04-08T09:04:01.803Z,3
2023-04-08T09:08:01.916Z,6
2023-04-08T09:12:01.241Z,6
2023-04-08T09:16:01.540Z,3
2023-04-08T09:20:01.904Z,3
2023-04-08T09:24:01.939Z,3
2023-04-08T09:28:02.133Z,4
2023-04-08T09:32:02.187Z,3
2023-04-08T09:36:01.541Z,3
2023-04-08T09:40:01.778Z,3
2023-04-08T09:44:02.055Z,1
2023-04-08T09:48:01.333Z,1
2023-04-08T09:52:01.309Z,3
2023-04-08T09:56:01.602Z,3
2023-04-08T10:00:04.216Z,3
2023-04-08T10:04:01.962Z,3
2023-04-08T10:08:02.207Z,3
2023-04-08T10:12:01.500Z,3
2023-04-08T10:16:01.475Z,3
2023-04-08T10:20:01.688Z,3
2023-04-08T10:24:01.702Z,3
2023-04-08T10:28:01.930Z,3
2023-04-08T10:32:01.983Z,3
2023-04-08T10:36:01.910Z,3
2023-04-08T10:40:02.031Z,3
2023-04-08T10:44:02.278Z,3
2023-04-08T10:48:01.423Z,3
2023-04-08T10:52:01.564Z,6
2023-04-08T10:56:01.870Z,4
2023-04-08T11:00:06.049Z,4
2023-04-08T11:04:01.456Z,4
2023-04-08T11:08:01.428Z,3
2023-04-08T11:12:01.538Z,3
2023-04-08T11:16:01.800Z,3
2023-04-08T11:20:01.850Z,3
2023-04-08T11:24:01.781Z,3
2023-04-08T11:28:01.944Z,3
2023-04-08T11:32:01.963Z,4
2023-04-08T11:36:01.469Z,4
2023-04-08T11:40:01.621Z,3
2023-04-08T11:44:01.638Z,4
2023-04-08T11:48:04.321Z,4
2023-04-08T11:52:01.661Z,3
2023-04-08T11:56:01.714Z,6
2023-04-08T12:00:03.767Z,6
2023-04-08T12:04:01.973Z,4
2023-04-08T12:08:02.015Z,4
2023-04-08T12:12:02.161Z,4
2023-04-08T12:16:01.297Z,4
2023-04-08T12:20:01.443Z,4
2023-04-08T12:24:01.495Z,4
2023-04-08T12:28:01.531Z,4
2023-04-08T12:32:01.638Z,4
2023-04-08T12:36:01.784Z,2
2023-04-08T12:40:02.113Z,3
2023-04-08T12:44:02.213Z,5
2023-04-08T12:48:02.134Z,2
2023-04-08T12:52:01.379Z,3
2023-04-08T12:56:01.504Z,4
2023-04-08T13:00:05.281Z,6
2023-04-08T13:04:01.544Z,3
2023-04-08T13:08:01.580Z,4
2023-04-08T13:12:01.852Z,2
2023-04-08T13:16:02.018Z,0
2023-04-08T13:20:01.971Z,2
2023-04-08T13:24:01.999Z,4
2023-04-08T13:28:02.184Z,3
2023-04-08T13:32:02.064Z,4
2023-04-08T13:36:02.120Z,2
2023-04-08T13:40:02.217Z,1
2023-04-08T13:44:01.469Z,2
2023-04-08T13:48:01.677Z,7
2023-04-08T13:52:01.734Z,1
2023-04-08T13:56:01.915Z,4
2023-04-08T14:00:05.101Z,4
2023-04-08T14:04:02.240Z,1
2023-04-08T14:08:01.539Z,2
2023-04-08T14:12:01.460Z,4
2023-04-08T14:16:01.486Z,2
2023-04-08T14:20:01.593Z,2
2023-04-08T14:24:02.792Z,4
2023-04-08T14:28:01.970Z,2
2023-04-08T14:32:02.162Z,5
2023-04-08T14:36:02.072Z,5
2023-04-08T14:40:01.293Z,5
2023-04-08T14:44:01.338Z,5
2023-04-08T14:48:01.421Z,4
2023-04-08T14:52:01.678Z,2
2023-04-08T14:56:01.668Z,4
2023-04-08T15:00:04.792Z,4
2023-04-08T15:04:02.272Z,3
2023-04-08T15:08:01.417Z,4
2023-04-08T15:12:01.427Z,4
2023-04-08T15:16:01.698Z,0
2023-04-08T15:20:01.797Z,2
2023-04-08T15:24:01.907Z,4
2023-04-08T15:28:01.709Z,2
2023-04-08T15:32:01.522Z,4
2023-04-08T15:36:01.833Z,4
2023-04-08T15:40:01.892Z,1
2023-04-08T15:44:01.928Z,5
2023-04-08T15:48:02.077Z,2
2023-04-08T15:52:02.125Z,4
2023-04-08T15:56:02.092Z,4
2023-04-08T16:00:04.865Z,4
2023-04-08T16:04:01.998Z,4
2023-04-08T16:08:02.000Z,4
2023-04-08T16:12:01.990Z,4
2023-04-08T16:16:02.283Z,4
2023-04-08T16:20:01.992Z,4
2023-04-08T16:24:02.219Z,2
2023-04-08T16:28:02.062Z,2
2023-04-08T16:32:01.988Z,4
2023-04-08T16:36:01.958Z,2
2023-04-08T16:40:01.306Z,2
2023-04-08T16:44:01.497Z,4
2023-04-08T16:48:01.605Z,4
2023-04-08T16:52:01.858Z,4
2023-04-08T16:56:02.122Z,2
2023-04-08T17:00:05.025Z,2
2023-04-08T17:04:01.316Z,2
2023-04-08T17:08:01.474Z,2
2023-04-08T17:12:01.485Z,2
2023-04-08T17:16:01.410Z,3
2023-04-08T17:20:01.463Z,3
2023-04-08T17:24:01.838Z,1
2023-04-08T17:28:01.804Z,3
2023-04-08T17:32:01.794Z,6
2023-04-08T17:36:02.125Z,3
2023-04-08T17:40:02.071Z,3
2023-04-08T17:44:02.080Z,3
2023-04-08T17:48:01.302Z,3
2023-04-08T17:52:01.426Z,3
2023-04-08T17:56:01.570Z,4
2023-04-08T18:00:09.372Z,4
2023-04-08T18:04:02.075Z,4
2023-04-08T18:08:02.105Z,3
2023-04-08T18:12:01.392Z,3
2023-04-08T18:16:01.404Z,4
2023-04-08T18:20:01.393Z,3
2023-04-08T18:24:01.742Z,3
2023-04-08T18:28:01.911Z,3
2023-04-08T18:32:02.102Z,3
2023-04-08T18:36:02.288Z,3
2023-04-08T18:40:01.393Z,3
2023-04-08T18:44:01.669Z,4
2023-04-08T18:48:01.723Z,4
2023-04-08T18:52:03.365Z,3
2023-04-08T18:56:01.729Z,3
2023-04-08T19:00:04.783Z,3
2023-04-08T19:04:02.097Z,3
2023-04-08T19:08:01.846Z,3
2023-04-08T19:12:02.010Z,3
2023-04-08T19:16:02.176Z,3
2023-04-08T19:20:02.192Z,3
2023-04-08T19:24:02.095Z,3
2023-04-08T19:28:02.086Z,3
2023-04-08T19:32:02.057Z,3
2023-04-08T19:36:01.907Z,3
2023-04-08T19:40:02.149Z,6
2023-04-08T19:44:01.960Z,3
2023-04-08T19:48:02.089Z,3
2023-04-08T19:52:02.043Z,3
2023-04-08T19:56:01.958Z,3
2023-04-08T20:00:06.056Z,3
2023-04-08T20:04:02.209Z,3
2023-04-08T20:08:02.091Z,1
2023-04-08T20:12:01.955Z,1
2023-04-08T20:16:02.011Z,4
2023-04-08T20:20:02.092Z,3
2023-04-08T20:24:02.184Z,3
2023-04-08T20:28:02.048Z,4
2023-04-08T20:32:02.071Z,3
2023-04-08T20:36:02.100Z,3
2023-04-08T20:40:02.086Z,4
2023-04-08T20:44:02.025Z,4
2023-04-08T20:48:02.070Z,4
2023-04-08T20:52:02.130Z,1
2023-04-08T20:56:01.976Z,3
2023-04-08T21:00:04.924Z,3
2023-04-08T21:04:01.283Z,4
2023-04-08T21:08:01.416Z,3
2023-04-08T21:12:01.826Z,3
2023-04-08T21:16:01.808Z,4
2023-04-08T21:20:01.757Z,4
2023-04-08T21:24:02.038Z,4
2023-04-08T21:28:02.089Z,3
2023-04-08T21:32:02.101Z,4
2023-04-08T21:36:02.154Z,4
2023-04-08T21:40:02.236Z,4
2023-04-08T21:44:01.358Z,6
2023-04-08T21:48:01.461Z,6
2023-04-08T21:52:01.564Z,4
2023-04-08T21:56:01.538Z,6
2023-04-08T22:00:02.169Z,6
2023-04-08T22:04:01.614Z,4
2023-04-08T22:08:01.750Z,4
2023-04-08T22:12:02.003Z,4
2023-04-08T22:16:01.292Z,7
2023-04-08T22:20:02.157Z,4
2023-04-08T22:24:01.349Z,4
2023-04-08T22:28:01.744Z,4
2023-04-08T22:32:01.859Z,4
2023-04-08T22:36:02.143Z,4
2023-04-08T22:40:02.269Z,4
2023-04-08T22:44:01.356Z,3
2023-04-08T22:48:01.582Z,3
2023-04-08T22:52:01.635Z,6
2023-04-08T22:56:01.938Z,4
2023-04-08T23:00:04.535Z,4
2023-04-08T23:04:01.581Z,3
2023-04-08T23:08:01.790Z,3
2023-04-08T23:12:01.774Z,3
2023-04-08T23:16:02.099Z,3
2023-04-08T23:20:02.375Z,3
2023-04-08T23:24:01.522Z,3
2023-04-08T23:28:01.567Z,3
2023-04-08T23:32:01.750Z,3
2023-04-08T23:36:01.935Z,3
2023-04-08T23:40:01.846Z,4
2023-04-08T23:44:02.117Z,3
2023-04-08T23:48:02.159Z,3
2023-04-08T23:52:01.997Z,4
2023-04-08T23:56:02.080Z,3
